»·PEaware :: N739DT KCMA-KSNA

N739DT :: KCMA-KSNA

FLIGHT INFORMATION

Flight Status: Arrived
Operator: Privately registered:
United States
More flights under this callsign
Pilot: Timothy A. (22812)
Aircraft: CESSNA 172 SKYHAWK
(C172)
More flights by this aircraft type
Origin: KCMA Camarillo
United States
Destination: KSNA John Wayne-Orange Co
United States
More flights between these airports :: More routes between these airports
Route:
File this flight plan on PilotEdge
Remarks:
Altitude:
(Current/Filed)
5,500ft
Speed:
(Current/Filed)
110kts
Departed: 10-Jan-21 05:27 PM
Arrived: 10-Jan-21 06:11 PM
Distance/Time
Traveled:
69nm/0:44
Distance/Time
To Go:
Arrived

Flight Plot

Page will automatically refresh every two minutes.


Map Options




Map Legend


Flown Route
Filed Route
Departure Airport
Arrival Airport
Navaid (VOR, NDB)
Fix

Horizontal Profiles

Position Reports

Time Latitude Longitude Heading Altitude Ground
Speed
10-Jan-21 17:13 34.210636 -119.090041 271 77ft 0kts
10-Jan-21 17:14 34.210636 -119.090041 271 77ft 0kts
10-Jan-21 17:15 34.210636 -119.090041 271 77ft 0kts
10-Jan-21 17:16 34.210636 -119.090041 271 77ft 0kts
10-Jan-21 17:17 34.210636 -119.090041 271 77ft 0kts
10-Jan-21 17:19 34.210636 -119.090041 271 77ft 0kts
10-Jan-21 17:20 34.210930 -119.086709 92 78ft 21kts
10-Jan-21 17:21 34.211210 -119.082970 289 79ft 10kts
10-Jan-21 17:22 34.212729 -119.084188 310 79ft 0kts
10-Jan-21 17:23 34.212729 -119.084188 310 79ft 0kts
10-Jan-21 17:24 34.212729 -119.084188 310 79ft 0kts
10-Jan-21 17:25 34.212894 -119.084449 338 78ft 0kts
10-Jan-21 17:26 34.213593 -119.084938 291 79ft 19kts
10-Jan-21 17:27 34.214259 -119.107501 272 550ft 83kts
10-Jan-21 17:28 34.196770 -119.110274 103 1242ft 101kts
10-Jan-21 17:29 34.196452 -119.080135 91 2106ft 90kts
10-Jan-21 17:30 34.198062 -119.050178 75 2852ft 90kts
10-Jan-21 17:31 34.199561 -119.019942 94 3562ft 90kts
10-Jan-21 17:32 34.200625 -118.989603 78 4225ft 93kts
10-Jan-21 17:33 34.205289 -118.958928 81 4889ft 93kts
10-Jan-21 17:33 34.206499 -118.932807 91 5395ft 94kts
10-Jan-21 17:35 34.202688 -118.889847 100 5673ft 116kts
10-Jan-21 17:36 34.199194 -118.848136 99 5499ft 126kts
10-Jan-21 17:37 34.190027 -118.807407 87 5524ft 127kts
10-Jan-21 17:37 34.196448 -118.772716 79 5511ft 127kts
10-Jan-21 17:38 34.201422 -118.730315 81 5501ft 127kts
10-Jan-21 17:39 34.208434 -118.688359 76 5483ft 128kts
10-Jan-21 17:40 34.214830 -118.646327 82 5466ft 127kts
10-Jan-21 17:41 34.219369 -118.603964 91 5508ft 124kts
10-Jan-21 17:42 34.199945 -118.569216 130 5486ft 127kts
10-Jan-21 17:43 34.171306 -118.545587 160 5467ft 126kts
10-Jan-21 17:44 34.138022 -118.532560 165 5466ft 125kts
10-Jan-21 17:45 34.105299 -118.517158 155 5459ft 126kts
10-Jan-21 17:46 34.073816 -118.498960 153 5467ft 126kts
10-Jan-21 17:47 34.041641 -118.482120 162 5456ft 125kts
10-Jan-21 17:48 34.008524 -118.469249 160 5474ft 125kts
10-Jan-21 17:49 33.976271 -118.452558 156 5467ft 125kts
10-Jan-21 17:50 33.944254 -118.435373 148 5457ft 126kts
10-Jan-21 17:51 33.916087 -118.409999 147 5462ft 126kts
10-Jan-21 17:52 33.888340 -118.384251 143 5455ft 126kts
10-Jan-21 17:53 33.863364 -118.354478 134 5465ft 126kts
10-Jan-21 17:54 33.837670 -118.325750 144 5460ft 126kts
10-Jan-21 17:55 33.808800 -118.301748 139 5464ft 126kts
10-Jan-21 17:56 33.784725 -118.271078 122 5463ft 127kts
10-Jan-21 17:57 33.761230 -118.239851 141 5470ft 126kts
10-Jan-21 17:58 33.735036 -118.212263 117 5448ft 128kts
10-Jan-21 17:59 33.724153 -118.172072 111 5286ft 128kts
10-Jan-21 18:00 33.711280 -118.132844 114 4224ft 125kts
10-Jan-21 18:01 33.692594 -118.097754 126 3151ft 123kts
10-Jan-21 18:02 33.670238 -118.066068 137 2440ft 119kts
10-Jan-21 18:03 33.647906 -118.036104 122 2141ft 119kts
10-Jan-21 18:04 33.631749 -118.004058 122 2233ft 109kts
10-Jan-21 18:05 33.631743 -117.967855 60 2095ft 119kts
10-Jan-21 18:06 33.648056 -117.932758 58 2022ft 118kts
10-Jan-21 18:07 33.661018 -117.898349 72 1143ft 111kts
10-Jan-21 18:08 33.682691 -117.875724 33 787ft 105kts
10-Jan-21 18:09 33.691190 -117.858364 224 507ft 90kts
10-Jan-21 18:10 33.675774 -117.869132 265 56ft 24kts
10-Jan-21 18:11 33.676724 -117.870132 300 53ft 12kts

Navigation Log

Ident Type
Flight plan parsing failed, navigation log unavailable